Time;durP1;ratioP1;P1;durP2;ratioP2;P2;SDS_P1;SDS_P2;PMS_P1;PMS_P2;Temp;Humidity;BMP_temperature;BMP_pressure;BME280_temperature;BME280_humidity;BME280_pressure;Samples;Min_cycle;Max_cycle;Signal;HPM_P1;HPM_P2
2023/12/12 00:02:17;;;;;;;51.80;9.90;;;3.00;99.90;;;;;;4950404;28;20281;-54
2023/12/12 00:04:43;;;;;;;93.70;11.40;;;3.00;99.90;;;;;;4949678;28;20187;-56
2023/12/12 00:07:09;;;;;;;75.83;9.27;;;3.00;99.90;;;;;;4945772;28;20224;-55
2023/12/12 00:09:34;;;;;;;83.30;11.77;;;3.00;99.90;;;;;;4945812;28;20183;-54
2023/12/12 00:12:00;;;;;;;85.60;9.47;;;3.00;99.90;;;;;;4955556;28;20206;-55
2023/12/12 00:14:26;;;;;;;59.03;8.37;;;3.00;99.90;;;;;;4950203;28;20237;-55
2023/12/12 00:16:52;;;;;;;136.97;11.10;;;3.00;99.90;;;;;;4948333;28;20494;-56
2023/12/12 00:19:18;;;;;;;99.90;10.23;;;3.00;99.90;;;;;;4952943;28;20183;-55
2023/12/12 00:21:43;;;;;;;72.67;9.47;;;3.00;99.90;;;;;;4943869;28;20187;-54
2023/12/12 00:24:09;;;;;;;58.10;8.47;;;3.00;99.90;;;;;;4956623;28;20183;-54
2023/12/12 00:26:34;;;;;;;88.00;8.37;;;3.00;99.90;;;;;;4949920;28;20264;-56
2023/12/12 00:29:00;;;;;;;116.37;11.17;;;3.00;99.90;;;;;;4952388;28;20776;-54
2023/12/12 00:31:26;;;;;;;151.80;10.93;;;3.00;99.90;;;;;;4950046;28;20223;-56
2023/12/12 00:33:51;;;;;;;88.30;9.00;;;2.90;99.90;;;;;;4941788;28;20352;-54
2023/12/12 00:36:17;;;;;;;50.60;7.23;;;2.90;99.90;;;;;;4943873;28;20217;-56
2023/12/12 00:38:42;;;;;;;51.53;8.17;;;2.80;99.90;;;;;;4947374;28;20659;-55
2023/12/12 00:41:08;;;;;;;58.47;7.57;;;2.80;99.90;;;;;;4946741;28;20231;-54
2023/12/12 00:43:34;;;;;;;80.67;8.03;;;2.80;99.90;;;;;;4949609;28;20289;-56
2023/12/12 00:46:00;;;;;;;91.20;8.53;;;2.80;99.90;;;;;;4942382;28;20633;-55
2023/12/12 00:48:25;;;;;;;90.63;9.37;;;2.80;99.90;;;;;;4945472;28;20619;-55
2023/12/12 00:50:51;;;;;;;58.90;7.97;;;2.80;99.90;;;;;;4949784;28;20441;-57
2023/12/12 00:53:16;;;;;;;105.30;8.97;;;2.80;99.90;;;;;;4944333;28;20217;-53
2023/12/12 00:55:42;;;;;;;48.27;7.00;;;2.80;99.90;;;;;;4950247;28;20194;-53
2023/12/12 00:58:08;;;;;;;36.03;6.37;;;2.80;99.90;;;;;;4953910;28;20192;-56
2023/12/12 01:00:33;;;;;;;31.13;5.63;;;2.80;99.90;;;;;;4946144;28;20222;-56
2023/12/12 01:02:59;;;;;;;11.90;4.70;;;2.80;99.90;;;;;;4955063;28;20206;-54
2023/12/12 01:05:25;;;;;;;13.77;5.27;;;2.80;99.90;;;;;;4947168;28;20178;-54
2023/12/12 01:07:50;;;;;;;8.63;4.27;;;2.80;99.90;;;;;;4949462;28;20605;-55
2023/12/12 01:10:16;;;;;;;10.50;4.93;;;2.80;99.90;;;;;;4949280;28;20489;-55
2023/12/12 01:12:42;;;;;;;9.03;4.57;;;2.80;99.90;;;;;;4942541;28;20210;-58
2023/12/12 01:15:08;;;;;;;8.47;5.03;;;2.90;99.90;;;;;;4950222;28;20266;-54
2023/12/12 01:17:33;;;;;;;8.40;5.13;;;2.90;99.90;;;;;;4947220;28;20260;-53
2023/12/12 01:19:59;;;;;;;14.77;5.57;;;2.90;99.90;;;;;;4952742;28;20496;-55
2023/12/12 01:22:24;;;;;;;14.77;5.77;;;2.90;99.90;;;;;;4939957;28;20211;-54
2023/12/12 01:24:50;;;;;;;22.97;6.83;;;2.90;99.90;;;;;;4943655;28;20789;-55
2023/12/12 01:27:16;;;;;;;21.43;7.10;;;3.00;99.90;;;;;;4950766;28;20187;-56
2023/12/12 01:29:41;;;;;;;16.43;6.03;;;3.00;99.90;;;;;;4947790;28;20244;-52
2023/12/12 01:32:07;;;;;;;24.43;6.90;;;3.00;99.90;;;;;;4947058;28;20202;-52
2023/12/12 01:34:32;;;;;;;15.03;6.47;;;3.00;99.90;;;;;;4951444;28;20645;-55
2023/12/12 01:36:58;;;;;;;19.03;6.83;;;3.00;99.90;;;;;;4950135;28;20265;-53
2023/12/12 01:39:24;;;;;;;25.90;7.70;;;3.00;99.90;;;;;;4951000;28;20190;-55
2023/12/12 01:41:50;;;;;;;21.17;8.27;;;3.00;99.90;;;;;;4949780;28;20166;-52
2023/12/12 01:44:16;;;;;;;21.23;7.17;;;3.00;99.90;;;;;;4944606;28;20273;-53
2023/12/12 01:46:44;;;;;;;23.20;7.17;;;3.10;99.90;;;;;;4948567;28;21031;-54
2023/12/12 01:49:10;;;;;;;16.67;6.87;;;3.10;99.90;;;;;;4951148;28;20426;-53
2023/12/12 01:51:37;;;;;;;13.50;6.67;;;3.10;99.90;;;;;;4948404;28;20430;-53
2023/12/12 01:54:04;;;;;;;18.97;7.10;;;3.10;99.90;;;;;;4943309;28;20957;-52
2023/12/12 01:56:32;;;;;;;21.33;6.40;;;3.10;99.90;;;;;;4950454;28;20959;-53
2023/12/12 01:58:58;;;;;;;21.77;7.30;;;3.10;99.90;;;;;;4951891;28;20422;-55
2023/12/12 02:01:25;;;;;;;52.17;7.30;;;3.10;99.90;;;;;;4945041;28;20963;-56
2023/12/12 02:03:52;;;;;;;12.53;5.77;;;3.10;99.90;;;;;;4947958;28;20522;-52
2023/12/12 02:06:22;;;;;;;14.27;6.43;;;3.10;99.90;;;;;;4954564;28;20422;-53
2023/12/12 02:08:49;;;;;;;11.40;5.83;;;3.10;99.90;;;;;;4950503;28;20434;-54
2023/12/12 02:11:15;;;;;;;14.03;5.87;;;3.10;99.90;;;;;;4952845;28;20425;-56
2023/12/12 02:13:41;;;;;;;17.90;6.40;;;3.10;99.90;;;;;;4952441;28;20445;-53
2023/12/12 02:16:08;;;;;;;14.00;6.40;;;3.10;99.90;;;;;;4948089;28;20895;-54
2023/12/12 02:18:33;;;;;;;8.70;5.20;;;3.10;99.90;;;;;;4946129;28;20441;-53
2023/12/12 02:21:00;;;;;;;11.83;5.53;;;3.10;99.90;;;;;;4947858;28;20423;-53
2023/12/12 02:23:27;;;;;;;9.63;5.80;;;3.10;99.90;;;;;;4953497;28;20232;-53
2023/12/12 02:25:54;;;;;;;9.50;5.20;;;3.10;99.90;;;;;;4943560;28;20932;-54
2023/12/12 02:28:20;;;;;;;11.83;5.97;;;3.10;99.90;;;;;;4951185;28;20444;-54
2023/12/12 02:30:46;;;;;;;7.60;5.37;;;3.10;99.90;;;;;;4951098;28;20454;-54
2023/12/12 02:33:11;;;;;;;16.13;5.00;;;3.10;99.90;;;;;;4951584;28;20438;-53
2023/12/12 02:35:37;;;;;;;10.37;5.80;;;3.10;99.90;;;;;;4951742;28;20728;-54
2023/12/12 02:38:03;;;;;;;9.40;4.97;;;3.10;99.90;;;;;;4952852;28;20204;-53
2023/12/12 02:40:28;;;;;;;8.20;4.57;;;3.10;99.90;;;;;;4951154;28;20261;-56
2023/12/12 02:42:54;;;;;;;9.00;4.70;;;3.20;99.90;;;;;;4952092;28;20286;-53
2023/12/12 02:45:19;;;;;;;7.50;4.13;;;3.20;99.90;;;;;;4953488;28;20194;-53
2023/12/12 02:47:45;;;;;;;7.23;4.00;;;3.20;99.90;;;;;;4950043;28;20274;-55
2023/12/12 02:50:11;;;;;;;9.50;4.47;;;3.20;99.90;;;;;;4952473;28;20261;-55
2023/12/12 02:52:36;;;;;;;8.33;4.63;;;3.20;99.90;;;;;;4945740;28;20190;-53
2023/12/12 02:55:02;;;;;;;8.57;4.57;;;3.20;99.90;;;;;;4946579;28;20210;-53
2023/12/12 02:57:28;;;;;;;8.60;4.63;;;3.30;99.90;;;;;;4952640;28;20241;-56
2023/12/12 02:59:54;;;;;;;8.50;4.17;;;3.30;99.90;;;;;;4952237;28;20230;-54
2023/12/12 03:02:19;;;;;;;19.97;4.40;;;3.30;99.90;;;;;;4947985;28;20462;-53
2023/12/12 03:04:45;;;;;;;15.67;4.53;;;3.40;99.90;;;;;;4950287;28;20227;-57
2023/12/12 03:07:12;;;;;;;7.83;4.50;;;3.40;99.90;;;;;;4947133;28;20182;-55
2023/12/12 03:09:37;;;;;;;12.93;4.90;;;3.40;99.90;;;;;;4949876;28;20418;-54
2023/12/12 03:12:04;;;;;;;9.60;5.03;;;3.40;99.90;;;;;;4951007;28;20501;-57
2023/12/12 03:14:29;;;;;;;9.17;5.23;;;3.40;99.90;;;;;;4952897;28;20293;-56
2023/12/12 03:16:56;;;;;;;7.73;4.50;;;3.40;99.90;;;;;;4948211;28;21047;-53
2023/12/12 03:19:22;;;;;;;10.93;5.37;;;3.40;99.90;;;;;;4951410;28;20266;-55
2023/12/12 03:21:49;;;;;;;12.87;5.43;;;3.50;99.90;;;;;;4947604;28;20449;-55
2023/12/12 03:24:14;;;;;;;8.23;4.80;;;3.50;99.90;;;;;;4958392;28;20809;-55
2023/12/12 03:26:40;;;;;;;8.37;5.07;;;3.50;99.90;;;;;;4944394;28;20437;-55
2023/12/12 03:29:05;;;;;;;8.90;5.17;;;3.50;99.90;;;;;;4949245;28;20242;-52
2023/12/12 03:31:31;;;;;;;6.67;5.03;;;3.50;99.90;;;;;;4950963;28;20186;-52
2023/12/12 03:33:57;;;;;;;13.13;5.37;;;3.50;99.90;;;;;;4949779;28;20284;-54
2023/12/12 03:36:22;;;;;;;9.70;4.80;;;3.50;99.90;;;;;;4947470;28;20217;-53
2023/12/12 03:38:48;;;;;;;15.53;5.43;;;3.50;99.90;;;;;;4945491;28;20190;-54
2023/12/12 03:41:14;;;;;;;10.20;5.20;;;3.50;99.90;;;;;;4947362;28;20702;-55
2023/12/12 03:43:39;;;;;;;6.83;4.40;;;3.50;99.90;;;;;;4952689;28;20230;-54
2023/12/12 03:46:05;;;;;;;9.97;5.00;;;3.60;99.90;;;;;;4950825;28;20183;-53
2023/12/12 03:48:31;;;;;;;6.50;4.27;;;3.60;99.90;;;;;;4958650;28;20178;-54
2023/12/12 03:50:57;;;;;;;9.70;4.50;;;3.60;99.90;;;;;;4950261;28;20179;-55
2023/12/12 03:53:23;;;;;;;10.77;5.10;;;3.60;99.90;;;;;;4950840;28;20210;-54
2023/12/12 03:55:48;;;;;;;6.83;4.43;;;3.60;99.90;;;;;;4951402;28;20431;-56
2023/12/12 03:58:14;;;;;;;14.17;5.23;;;3.60;99.90;;;;;;4951192;28;20206;-53
2023/12/12 04:00:40;;;;;;;11.00;4.80;;;3.60;99.90;;;;;;4947395;28;20555;-54
2023/12/12 04:03:06;;;;;;;12.23;5.50;;;3.60;99.90;;;;;;4942407;28;20461;-54
2023/12/12 04:05:31;;;;;;;12.87;5.30;;;3.60;99.90;;;;;;4952183;28;20589;-54
2023/12/12 04:07:57;;;;;;;9.13;5.33;;;3.60;99.90;;;;;;4946393;28;20178;-55
2023/12/12 04:10:22;;;;;;;14.07;5.83;;;3.70;99.90;;;;;;4950340;28;20269;-55
2023/12/12 04:12:48;;;;;;;12.67;5.80;;;3.70;99.90;;;;;;4953880;28;20217;-51
2023/12/12 04:15:14;;;;;;;11.80;5.63;;;3.70;99.90;;;;;;4949505;28;20548;-54
2023/12/12 04:17:39;;;;;;;9.67;5.70;;;3.70;99.90;;;;;;4950734;28;20231;-53
2023/12/12 04:20:06;;;;;;;14.60;5.80;;;3.70;99.90;;;;;;4950825;28;20230;-55
2023/12/12 04:22:32;;;;;;;7.00;4.73;;;3.70;99.90;;;;;;4949781;28;20753;-52
2023/12/12 04:24:57;;;;;;;8.30;5.00;;;3.70;99.90;;;;;;4950879;28;20521;-54
2023/12/12 04:27:23;;;;;;;8.07;5.20;;;3.70;99.90;;;;;;4950923;28;20669;-56
2023/12/12 04:29:48;;;;;;;8.80;4.40;;;3.70;99.90;;;;;;4950519;28;20190;-53
2023/12/12 04:32:15;;;;;;;11.30;5.57;;;3.70;99.90;;;;;;4943060;28;20211;-54
2023/12/12 04:34:41;;;;;;;7.20;4.50;;;3.70;99.90;;;;;;4945374;28;20183;-52
2023/12/12 04:37:07;;;;;;;11.40;4.73;;;3.70;99.90;;;;;;4948348;28;20537;-54
2023/12/12 04:39:33;;;;;;;7.53;5.17;;;3.70;99.90;;;;;;4953540;28;20514;-53
2023/12/12 04:41:58;;;;;;;8.93;5.07;;;3.80;99.90;;;;;;4951130;28;20800;-53
2023/12/12 04:44:24;;;;;;;15.13;5.53;;;3.80;99.90;;;;;;4947739;28;20210;-55
2023/12/12 04:46:50;;;;;;;13.63;5.33;;;3.80;99.90;;;;;;4948298;28;20664;-56
2023/12/12 04:49:16;;;;;;;14.23;6.07;;;3.80;99.90;;;;;;4944435;28;20187;-52
2023/12/12 04:51:42;;;;;;;11.83;5.57;;;3.80;99.90;;;;;;4949678;28;20187;-54
2023/12/12 04:54:07;;;;;;;11.70;6.37;;;3.80;99.90;;;;;;4951315;28;20434;-55
2023/12/12 04:56:33;;;;;;;17.73;6.17;;;3.80;99.90;;;;;;4956197;28;20210;-52
2023/12/12 04:58:59;;;;;;;12.87;5.77;;;3.80;99.90;;;;;;4945952;28;20202;-54
2023/12/12 05:01:26;;;;;;;13.13;7.03;;;3.80;99.90;;;;;;4949221;28;20174;-56
2023/12/12 05:03:52;;;;;;;16.73;5.40;;;3.90;99.90;;;;;;4947088;28;20205;-55
2023/12/12 05:06:18;;;;;;;14.10;5.93;;;3.90;99.90;;;;;;4936245;28;20422;-57
2023/12/12 05:08:45;;;;;;;14.73;5.47;;;3.90;99.90;;;;;;4949894;28;20193;-54
2023/12/12 05:11:14;;;;;;;15.13;5.03;;;3.80;99.90;;;;;;4945085;28;20457;-55
2023/12/12 05:13:40;;;;;;;15.60;5.73;;;3.80;99.90;;;;;;4943287;28;20453;-53
2023/12/12 05:16:09;;;;;;;15.23;5.13;;;3.80;99.90;;;;;;4949387;28;20473;-54
2023/12/12 05:18:34;;;;;;;27.07;8.97;;;3.80;99.90;;;;;;4945764;28;20433;-53
2023/12/12 05:21:00;;;;;;;30.57;8.47;;;3.80;99.90;;;;;;4946670;28;20434;-53
2023/12/12 05:23:26;;;;;;;24.50;7.47;;;3.80;99.90;;;;;;4943327;28;20206;-54
2023/12/12 05:25:52;;;;;;;21.90;7.70;;;3.80;99.90;;;;;;4949782;28;20873;-56
2023/12/12 05:28:17;;;;;;;23.30;8.23;;;3.80;99.90;;;;;;4950622;28;20183;-56
2023/12/12 05:30:46;;;;;;;21.80;7.37;;;3.90;99.90;;;;;;4954458;28;20193;-55
2023/12/12 05:33:12;;;;;;;22.97;7.47;;;3.90;99.90;;;;;;4949291;28;20225;-55
2023/12/12 05:35:38;;;;;;;20.43;7.33;;;3.90;99.90;;;;;;4949765;28;20420;-54
2023/12/12 05:38:04;;;;;;;25.20;7.73;;;3.90;99.90;;;;;;4947507;28;20472;-54
2023/12/12 05:40:30;;;;;;;19.93;7.40;;;3.90;99.90;;;;;;4946251;28;20181;-57
2023/12/12 05:42:56;;;;;;;22.93;8.47;;;3.90;99.90;;;;;;4949332;28;20450;-53
2023/12/12 05:45:22;;;;;;;27.93;8.20;;;3.90;99.90;;;;;;4944243;28;20190;-54
2023/12/12 05:47:48;;;;;;;32.50;8.30;;;3.90;99.90;;;;;;4949676;28;20501;-53
2023/12/12 05:50:14;;;;;;;28.10;9.10;;;4.00;99.90;;;;;;4950229;28;20186;-54
2023/12/12 05:52:40;;;;;;;26.50;9.60;;;4.00;99.90;;;;;;4943681;28;20852;-55
2023/12/12 05:55:05;;;;;;;32.60;9.80;;;4.00;99.90;;;;;;4945196;28;20719;-54
2023/12/12 05:57:32;;;;;;;29.90;9.73;;;4.00;99.90;;;;;;4948594;28;20245;-54
2023/12/12 05:59:58;;;;;;;20.57;9.53;;;4.00;99.90;;;;;;4940613;28;20609;-57
2023/12/12 06:02:24;;;;;;;25.17;9.93;;;4.00;99.90;;;;;;4953496;28;20448;-56
2023/12/12 06:04:50;;;;;;;28.10;10.43;;;4.00;99.90;;;;;;4945048;28;20422;-55
2023/12/12 06:07:15;;;;;;;30.73;11.83;;;4.00;99.90;;;;;;4946046;28;20797;-54
2023/12/12 06:09:41;;;;;;;26.97;10.30;;;4.10;99.90;;;;;;4947633;28;20237;-55
2023/12/12 06:12:07;;;;;;;22.90;10.23;;;4.10;99.90;;;;;;4949862;28;20646;-56
2023/12/12 06:14:33;;;;;;;31.87;11.80;;;4.10;99.90;;;;;;4946630;28;20182;-56
2023/12/12 06:16:58;;;;;;;24.73;10.83;;;4.10;99.90;;;;;;4949428;28;20519;-54
2023/12/12 06:19:24;;;;;;;31.07;11.53;;;4.10;99.90;;;;;;4949289;28;20174;-55
2023/12/12 06:21:53;;;;;;;28.90;12.10;;;4.10;99.90;;;;;;4953372;28;20189;-55
2023/12/12 06:24:19;;;;;;;43.03;11.87;;;4.10;99.90;;;;;;4949844;28;20175;-55
2023/12/12 06:26:45;;;;;;;29.07;11.90;;;4.20;99.90;;;;;;4952459;28;20433;-55
2023/12/12 06:29:12;;;;;;;27.33;10.33;;;4.20;99.90;;;;;;4948162;28;20497;-55
2023/12/12 06:31:39;;;;;;;32.07;11.50;;;4.20;99.90;;;;;;4947717;28;20948;-53
2023/12/12 06:34:05;;;;;;;30.90;11.60;;;4.20;99.90;;;;;;4943503;28;20841;-54
2023/12/12 06:36:30;;;;;;;29.17;10.93;;;4.20;99.90;;;;;;4941847;28;20461;-57
2023/12/12 06:38:56;;;;;;;27.50;11.97;;;4.20;99.90;;;;;;4949643;28;20437;-53
2023/12/12 06:41:22;;;;;;;32.97;13.23;;;4.30;99.90;;;;;;4949402;28;20597;-54
2023/12/12 06:43:48;;;;;;;35.47;11.00;;;4.20;99.90;;;;;;4949635;28;20194;-53
2023/12/12 06:46:20;;;;;;;35.80;12.80;;;4.30;99.90;;;;;;4942983;28;20795;-57
2023/12/12 06:48:45;;;;;;;47.37;13.50;;;4.30;99.90;;;;;;4945475;28;20549;-54
2023/12/12 06:51:11;;;;;;;44.40;13.10;;;4.30;99.90;;;;;;4949863;28;20418;-55
2023/12/12 06:53:37;;;;;;;46.80;14.57;;;4.30;99.90;;;;;;4939959;28;20199;-56
2023/12/12 06:56:03;;;;;;;41.70;12.97;;;4.30;99.90;;;;;;4956642;28;20273;-53
2023/12/12 06:58:29;;;;;;;31.83;12.27;;;4.30;99.90;;;;;;4953127;28;20406;-53
2023/12/12 07:00:54;;;;;;;34.33;12.00;;;4.30;99.90;;;;;;4950189;28;20451;-55
2023/12/12 07:03:21;;;;;;;34.03;13.57;;;4.40;99.90;;;;;;4952205;28;20194;-54
2023/12/12 07:05:51;;;;;;;30.43;10.40;;;4.40;99.90;;;;;;4950558;28;20415;-54
2023/12/12 07:08:20;;;;;;;37.63;12.87;;;4.50;99.90;;;;;;4950065;28;20481;-53
2023/12/12 07:10:46;;;;;;;37.37;13.40;;;4.50;99.90;;;;;;4950691;28;21157;-54
2023/12/12 07:13:12;;;;;;;41.63;14.20;;;4.50;99.90;;;;;;4953807;28;20438;-54
2023/12/12 07:15:38;;;;;;;31.73;13.13;;;4.50;99.90;;;;;;4952307;28;21105;-54
2023/12/12 07:18:09;;;;;;;73.80;17.47;;;4.50;99.90;;;;;;4949077;28;20454;-53
2023/12/12 07:20:36;;;;;;;60.13;16.23;;;4.60;99.90;;;;;;4951812;28;20577;-53
2023/12/12 07:23:02;;;;;;;52.00;14.43;;;4.50;99.90;;;;;;4951810;28;20469;-53
2023/12/12 07:25:29;;;;;;;44.13;14.37;;;4.60;99.90;;;;;;4952252;28;20846;-55
2023/12/12 07:27:55;;;;;;;53.90;14.80;;;4.60;99.90;;;;;;4947104;28;20458;-56
2023/12/12 07:30:20;;;;;;;45.60;13.47;;;4.60;99.90;;;;;;4957678;28;20610;-56
2023/12/12 07:32:46;;;;;;;41.30;13.63;;;4.60;99.90;;;;;;4951588;28;20225;-54
2023/12/12 07:35:11;;;;;;;42.80;13.97;;;4.60;99.90;;;;;;4954751;28;20653;-53
2023/12/12 07:37:37;;;;;;;41.40;13.50;;;4.60;99.90;;;;;;4951119;28;20321;-54
2023/12/12 07:40:04;;;;;;;42.17;13.43;;;4.60;99.90;;;;;;4950510;28;20183;-56
2023/12/12 07:42:30;;;;;;;47.63;12.30;;;4.60;99.90;;;;;;4953019;28;20190;-55
2023/12/12 07:44:56;;;;;;;38.17;12.63;;;4.60;99.90;;;;;;4950694;28;20946;-54
2023/12/12 07:47:22;;;;;;;52.73;14.70;;;4.60;99.90;;;;;;4952951;28;20182;-55
2023/12/12 07:49:47;;;;;;;32.73;13.43;;;4.60;99.90;;;;;;4948641;28;20449;-55
2023/12/12 07:52:13;;;;;;;36.37;13.60;;;4.60;99.90;;;;;;4945034;28;20260;-55
2023/12/12 07:54:39;;;;;;;31.57;14.67;;;4.60;99.90;;;;;;4950730;28;20182;-58
2023/12/12 07:57:05;;;;;;;39.80;15.53;;;4.70;99.90;;;;;;4949556;28;20203;-55
2023/12/12 07:59:31;;;;;;;32.10;13.53;;;4.70;99.90;;;;;;4951290;28;20584;-54
2023/12/12 08:01:56;;;;;;;33.43;13.23;;;4.70;99.90;;;;;;4946078;28;20569;-57
2023/12/12 08:04:22;;;;;;;37.80;14.03;;;4.70;99.90;;;;;;4951918;28;20210;-54
2023/12/12 08:06:47;;;;;;;38.83;14.30;;;4.80;99.90;;;;;;4948504;28;20206;-55
2023/12/12 08:09:13;;;;;;;34.17;14.67;;;4.80;99.90;;;;;;4952104;28;20193;-57
2023/12/12 08:11:39;;;;;;;34.73;14.27;;;4.80;99.90;;;;;;4936490;28;20187;-59
2023/12/12 08:14:05;;;;;;;27.63;13.10;;;4.80;99.90;;;;;;4947237;28;20265;-54
2023/12/12 08:16:31;;;;;;;31.50;12.73;;;4.90;99.90;;;;;;4951454;28;21103;-53
2023/12/12 08:18:56;;;;;;;34.33;13.07;;;4.90;99.90;;;;;;4948881;28;20306;-54
2023/12/12 08:21:22;;;;;;;34.07;12.77;;;4.90;99.90;;;;;;4951815;28;20186;-55
2023/12/12 08:23:48;;;;;;;42.73;14.57;;;4.90;99.90;;;;;;4952763;28;20209;-54
2023/12/12 08:26:14;;;;;;;39.83;13.63;;;5.00;99.90;;;;;;4950225;28;20417;-55
2023/12/12 08:28:40;;;;;;;27.57;13.93;;;5.00;99.90;;;;;;4947213;28;20172;-54
2023/12/12 08:31:06;;;;;;;38.93;15.50;;;5.00;99.90;;;;;;4951955;28;20417;-56
2023/12/12 08:33:33;;;;;;;40.97;14.80;;;5.00;99.90;;;;;;4944684;28;20210;-53
2023/12/12 08:35:59;;;;;;;42.47;15.43;;;5.00;99.90;;;;;;4949019;28;20234;-55
2023/12/12 08:38:25;;;;;;;29.90;15.43;;;5.00;99.90;;;;;;4944293;28;20478;-54
2023/12/12 08:40:50;;;;;;;30.40;13.40;;;5.00;99.90;;;;;;4947605;28;20995;-55
2023/12/12 08:43:16;;;;;;;31.90;13.60;;;5.00;99.90;;;;;;4949209;28;20205;-53
2023/12/12 08:45:44;;;;;;;45.40;16.10;;;5.00;99.90;;;;;;4949067;28;20183;-56
2023/12/12 08:48:09;;;;;;;23.30;11.40;;;5.00;99.90;;;;;;4946992;28;20266;-54
2023/12/12 08:50:35;;;;;;;27.23;11.87;;;5.00;99.90;;;;;;4950643;28;20543;-54
2023/12/12 08:53:03;;;;;;;37.87;15.70;;;5.10;99.90;;;;;;4952894;28;20194;-53
2023/12/12 08:55:29;;;;;;;30.00;13.50;;;5.10;99.90;;;;;;4944181;28;20443;-54
2023/12/12 08:57:54;;;;;;;33.43;15.00;;;5.10;99.90;;;;;;4947918;28;20480;-54
2023/12/12 09:00:20;;;;;;;34.27;14.37;;;5.10;99.90;;;;;;4950140;28;20514;-54
2023/12/12 09:02:46;;;;;;;31.17;13.97;;;5.10;99.90;;;;;;4950728;28;20187;-55
2023/12/12 09:05:11;;;;;;;26.80;13.37;;;5.20;99.90;;;;;;4955107;28;20209;-55
2023/12/12 09:07:37;;;;;;;28.47;13.50;;;5.20;99.90;;;;;;4942677;28;20237;-55
2023/12/12 09:10:03;;;;;;;28.47;13.50;;;5.20;99.90;;;;;;4951234;28;20217;-54
2023/12/12 09:12:29;;;;;;;31.33;13.13;;;5.20;99.90;;;;;;4949326;28;20220;-57
2023/12/12 09:14:55;;;;;;;36.00;15.03;;;5.20;99.90;;;;;;4944317;28;20435;-54
2023/12/12 09:17:20;;;;;;;27.60;13.33;;;5.30;99.90;;;;;;4947810;28;20212;-53
2023/12/12 09:19:46;;;;;;;27.53;13.00;;;5.30;99.90;;;;;;4949619;28;20230;-56
2023/12/12 09:22:11;;;;;;;23.43;12.23;;;5.30;99.90;;;;;;4945545;28;20221;-55
2023/12/12 09:24:37;;;;;;;26.93;11.63;;;5.40;99.90;;;;;;4948966;28;20209;-55
2023/12/12 09:27:03;;;;;;;19.23;10.40;;;5.40;99.90;;;;;;4951607;28;20777;-54
2023/12/12 09:29:29;;;;;;;15.43;9.63;;;5.50;99.90;;;;;;4941478;28;20175;-54
2023/12/12 09:31:56;;;;;;;20.73;9.60;;;5.50;99.90;;;;;;4953039;28;20422;-55
2023/12/12 09:34:23;;;;;;;19.63;9.53;;;5.50;99.90;;;;;;4948731;28;20171;-56
2023/12/12 09:36:52;;;;;;;17.17;9.20;;;5.60;99.90;;;;;;4954974;28;20626;-54
2023/12/12 09:39:18;;;;;;;21.37;11.17;;;5.60;99.90;;;;;;4949394;28;20770;-54
2023/12/12 09:41:49;;;;;;;24.27;11.73;;;5.70;99.90;;;;;;4941504;28;20410;-54
2023/12/12 09:44:17;;;;;;;19.00;10.93;;;5.70;99.90;;;;;;4943411;28;20812;-54
2023/12/12 09:46:46;;;;;;;21.63;11.80;;;5.70;99.90;;;;;;4950356;28;20422;-56
2023/12/12 09:49:14;;;;;;;18.77;10.90;;;5.70;99.90;;;;;;4943264;28;21186;-55
2023/12/12 09:51:41;;;;;;;22.37;12.27;;;5.70;99.90;;;;;;4946704;28;20444;-58
2023/12/12 09:54:07;;;;;;;20.10;11.63;;;5.70;99.90;;;;;;4951162;28;20429;-55
2023/12/12 09:56:37;;;;;;;17.70;10.03;;;5.80;99.90;;;;;;4949392;28;20458;-55
2023/12/12 09:59:04;;;;;;;17.90;10.37;;;5.80;99.90;;;;;;4953057;28;20886;-56
2023/12/12 10:01:34;;;;;;;19.97;11.27;;;5.80;99.90;;;;;;4948375;28;20434;-54
2023/12/12 10:04:05;;;;;;;26.70;12.67;;;5.90;99.90;;;;;;4943047;28;21038;-54
2023/12/12 10:06:42;;;;;;;22.80;12.00;;;5.90;99.90;;;;;;4952278;28;20437;-54
2023/12/12 10:09:09;;;;;;;33.30;14.47;;;5.90;99.90;;;;;;4941619;28;20415;-55
2023/12/12 10:11:35;;;;;;;28.57;13.10;;;6.00;99.90;;;;;;4948762;28;20450;-57
2023/12/12 10:14:00;;;;;;;25.53;12.73;;;6.10;99.90;;;;;;4949467;28;20473;-54
2023/12/12 10:16:27;;;;;;;25.77;12.17;;;6.10;99.90;;;;;;4945847;28;20736;-54
2023/12/12 10:18:53;;;;;;;23.23;11.00;;;6.10;99.90;;;;;;4950298;28;20186;-54
2023/12/12 10:21:19;;;;;;;21.63;11.37;;;6.20;99.90;;;;;;4949762;28;20437;-52
2023/12/12 10:23:50;;;;;;;25.97;12.40;;;6.20;99.90;;;;;;4943046;28;20451;-57
2023/12/12 10:26:23;;;;;;;30.00;13.13;;;6.30;99.90;;;;;;4951744;28;21137;-55
2023/12/12 10:28:49;;;;;;;25.80;12.43;;;6.30;99.90;;;;;;4949320;28;20426;-55
2023/12/12 10:31:14;;;;;;;29.60;12.97;;;6.30;99.90;;;;;;4950937;28;20422;-55
2023/12/12 10:33:40;;;;;;;25.00;12.23;;;6.40;99.90;;;;;;4944909;28;20198;-54
2023/12/12 10:36:10;;;;;;;24.57;12.47;;;6.40;99.90;;;;;;4951386;28;20552;-56
2023/12/12 10:38:38;;;;;;;22.87;12.17;;;6.40;99.90;;;;;;4947297;28;20197;-55
2023/12/12 10:41:30;;;;;;;20.77;10.67;;;6.50;99.90;;;;;;4947452;28;21028;-56
2023/12/12 10:44:01;;;;;;;23.70;11.00;;;6.60;99.90;;;;;;4948985;28;20595;-56
2023/12/12 10:46:28;;;;;;;21.93;10.43;;;6.60;99.90;;;;;;4954334;28;20451;-55
2023/12/12 10:48:55;;;;;;;15.93;10.20;;;6.60;99.90;;;;;;4951151;28;20509;-56
2023/12/12 10:51:22;;;;;;;16.70;10.50;;;6.60;99.90;;;;;;4949426;28;20465;-55
2023/12/12 10:53:49;;;;;;;16.50;9.93;;;6.70;99.90;;;;;;4952942;28;20525;-54
2023/12/12 10:56:15;;;;;;;18.80;11.23;;;6.70;99.90;;;;;;4951760;28;20425;-57
2023/12/12 10:58:42;;;;;;;20.90;12.43;;;6.70;99.90;;;;;;4950896;28;20414;-54
2023/12/12 11:01:15;;;;;;;17.97;11.00;;;6.70;99.90;;;;;;4948510;28;20492;-55
2023/12/12 11:03:41;;;;;;;17.53;11.93;;;6.70;99.90;;;;;;4951689;28;20517;-55
2023/12/12 11:06:08;;;;;;;28.00;13.70;;;6.70;99.90;;;;;;4952155;28;20489;-55
2023/12/12 11:08:34;;;;;;;22.33;11.87;;;6.70;99.90;;;;;;4951807;28;20438;-55
2023/12/12 11:11:04;;;;;;;21.53;12.33;;;6.70;99.90;;;;;;4958849;28;20417;-55
2023/12/12 11:13:33;;;;;;;21.73;13.17;;;6.70;99.90;;;;;;4951271;28;21024;-54
2023/12/12 11:16:01;;;;;;;21.10;11.70;;;6.70;99.90;;;;;;4945507;28;20422;-56
2023/12/12 11:18:26;;;;;;;21.43;12.30;;;6.80;99.90;;;;;;4952310;28;20477;-54
2023/12/12 11:20:52;;;;;;;28.03;13.03;;;6.80;99.90;;;;;;4951536;28;20424;-55
2023/12/12 11:23:55;;;;;;;22.23;12.53;;;6.80;99.90;;;;;;4947874;28;20198;-53
2023/12/12 11:26:25;;;;;;;22.87;13.10;;;6.80;99.90;;;;;;4951329;28;20426;-56
2023/12/12 11:28:52;;;;;;;25.57;12.67;;;6.80;99.90;;;;;;4949313;28;20426;-54
2023/12/12 11:31:25;;;;;;;22.10;12.73;;;6.90;99.90;;;;;;4952409;28;20445;-55
2023/12/12 11:34:00;;;;;;;16.23;11.20;;;6.90;99.90;;;;;;4952782;28;20438;-57
2023/12/12 11:36:46;;;;;;;17.27;10.03;;;6.90;99.90;;;;;;4948647;28;20566;-56
2023/12/12 11:39:12;;;;;;;19.43;10.63;;;6.90;99.90;;;;;;4952916;28;20800;-57
2023/12/12 11:41:38;;;;;;;20.13;11.23;;;6.90;99.90;;;;;;4951011;28;20414;-55
2023/12/12 11:44:05;;;;;;;19.80;11.20;;;6.90;99.90;;;;;;4953422;28;20453;-54
2023/12/12 11:46:31;;;;;;;20.07;12.63;;;6.90;99.90;;;;;;4951459;28;20930;-54
2023/12/12 11:49:17;;;;;;;25.00;14.13;;;6.90;99.90;;;;;;4946246;28;20428;-56
2023/12/12 11:51:47;;;;;;;24.27;14.40;;;7.00;99.90;;;;;;4943944;28;20214;-58
2023/12/12 11:54:23;;;;;;;23.70;14.10;;;7.00;99.90;;;;;;4949103;28;20461;-54
2023/12/12 11:56:57;;;;;;;21.87;14.00;;;7.00;99.90;;;;;;4953110;28;20464;-53
2023/12/12 11:59:23;;;;;;;22.77;13.23;;;7.00;99.90;;;;;;4952930;28;20844;-54
2023/12/12 12:01:49;;;;;;;26.90;14.70;;;7.00;99.90;;;;;;4951487;28;20454;-54
2023/12/12 12:04:15;;;;;;;22.93;14.30;;;7.00;99.90;;;;;;4950992;28;20456;-55
2023/12/12 12:06:42;;;;;;;20.70;13.00;;;7.00;99.90;;;;;;4949566;28;20441;-55
2023/12/12 12:09:09;;;;;;;23.67;13.90;;;7.10;99.90;;;;;;4947099;28;20266;-54
2023/12/12 12:11:44;;;;;;;21.40;13.20;;;7.10;99.90;;;;;;4946012;28;20936;-55
2023/12/12 12:14:13;;;;;;;24.60;13.30;;;7.20;99.90;;;;;;4949144;28;20428;-56
2023/12/12 12:16:39;;;;;;;21.83;12.63;;;7.20;99.90;;;;;;4945328;28;20476;-55
2023/12/12 12:19:29;;;;;;;18.30;11.10;;;7.20;99.90;;;;;;4947294;28;20550;-56
2023/12/12 12:21:56;;;;;;;17.00;11.47;;;7.20;99.90;;;;;;4950935;28;20437;-55
2023/12/12 12:24:22;;;;;;;14.20;9.43;;;7.30;99.90;;;;;;4946060;28;21109;-54
2023/12/12 12:26:48;;;;;;;16.27;9.30;;;7.30;99.90;;;;;;4948258;28;20457;-54
2023/12/12 12:29:14;;;;;;;16.13;9.87;;;7.40;99.90;;;;;;4952096;28;20216;-56
2023/12/12 12:31:39;;;;;;;14.47;8.53;;;7.40;99.90;;;;;;4952438;28;20932;-53
2023/12/12 12:34:22;;;;;;;15.50;9.10;;;7.50;99.90;;;;;;4950519;28;20194;-57
2023/12/12 12:36:48;;;;;;;17.40;10.20;;;7.50;99.90;;;;;;4948313;28;20202;-53
2023/12/12 12:39:17;;;;;;;13.60;9.53;;;7.60;99.90;;;;;;4948017;28;20489;-54
2023/12/12 12:41:46;;;;;;;15.70;10.87;;;7.70;99.90;;;;;;4950552;28;20496;-55